sensor_id;sensor_type;location;lat;lon;timestamp;pressure;altitude;pressure_sealevel;temperature;humidity
10064;BME280;5071;52.360;13.134;2023-01-30T00:02:41;100955.88;;;1.02;83.25
10064;BME280;5071;52.360;13.134;2023-01-30T00:07:43;100933.00;;;0.95;83.29
10064;BME280;5071;52.360;13.134;2023-01-30T00:12:46;100918.25;;;0.97;83.41
10064;BME280;5071;52.360;13.134;2023-01-30T00:17:48;100905.19;;;0.97;83.34
10064;BME280;5071;52.360;13.134;2023-01-30T00:22:50;100878.28;;;1.01;83.29
10064;BME280;5071;52.360;13.134;2023-01-30T00:28:03;100867.84;;;1.01;83.21
10064;BME280;5071;52.360;13.134;2023-01-30T00:33:05;100850.41;;;1.00;83.34
10064;BME280;5071;52.360;13.134;2023-01-30T00:38:07;100822.41;;;0.96;83.28
10064;BME280;5071;52.360;13.134;2023-01-30T00:43:12;100804.94;;;0.95;83.40
10064;BME280;5071;52.360;13.134;2023-01-30T00:48:15;100772.66;;;0.93;83.80
10064;BME280;5071;52.360;13.134;2023-01-30T00:53:17;100743.91;;;0.93;83.67
10064;BME280;5071;52.360;13.134;2023-01-30T00:58:24;100743.91;;;0.93;83.63
10064;BME280;5071;52.360;13.134;2023-01-30T01:03:26;100728.09;;;0.87;83.53
10064;BME280;5071;52.360;13.134;2023-01-30T01:08:29;100721.00;;;0.83;83.78
10064;BME280;5071;52.360;13.134;2023-01-30T01:13:32;100716.66;;;0.83;83.91
10064;BME280;5071;52.360;13.134;2023-01-30T01:18:34;100698.41;;;0.85;83.96
10064;BME280;5071;52.360;13.134;2023-01-30T01:23:36;100663.69;;;0.89;83.87
10064;BME280;5071;52.360;13.134;2023-01-30T01:28:40;100668.09;;;0.91;83.20
10064;BME280;5071;52.360;13.134;2023-01-30T01:33:42;100658.69;;;0.98;83.19
10064;BME280;5071;52.360;13.134;2023-01-30T01:38:44;100660.53;;;1.02;83.29
10064;BME280;5071;52.360;13.134;2023-01-30T01:44:00;100671.81;;;1.01;82.80
10064;BME280;5071;52.360;13.134;2023-01-30T01:49:07;100672.03;;;1.10;82.81
10064;BME280;5071;52.360;13.134;2023-01-30T01:54:15;100674.78;;;1.15;82.62
10064;BME280;5071;52.360;13.134;2023-01-30T01:59:25;100649.56;;;1.17;83.07
10064;BME280;5071;52.360;13.134;2023-01-30T02:04:31;100620.84;;;1.19;82.97
10064;BME280;5071;52.360;13.134;2023-01-30T02:09:33;100605.16;;;1.19;83.22
10064;BME280;5071;52.360;13.134;2023-01-30T02:14:37;100579.97;;;1.22;83.27
10064;BME280;5071;52.360;13.134;2023-01-30T02:19:46;100561.56;;;1.17;83.95
10064;BME280;5071;52.360;13.134;2023-01-30T02:30:46;100533.59;;;1.13;84.46
10064;BME280;5071;52.360;13.134;2023-01-30T02:36:02;100534.50;;;1.15;84.47
10064;BME280;5071;52.360;13.134;2023-01-30T02:41:13;100522.34;;;1.17;84.91
10064;BME280;5071;52.360;13.134;2023-01-30T02:46:25;100509.16;;;1.11;86.61
10064;BME280;5071;52.360;13.134;2023-01-30T02:51:34;100509.06;;;1.08;88.25
10064;BME280;5071;52.360;13.134;2023-01-30T02:56:45;100454.13;;;1.05;88.43
10064;BME280;5071;52.360;13.134;2023-01-30T03:02:19;100468.22;;;1.12;88.82
10064;BME280;5071;52.360;13.134;2023-01-30T03:07:37;100446.34;;;1.08;89.10
10064;BME280;5071;52.360;13.134;2023-01-30T03:12:48;100451.69;;;1.14;88.85
10064;BME280;5071;52.360;13.134;2023-01-30T03:17:55;100439.72;;;1.24;88.40
10064;BME280;5071;52.360;13.134;2023-01-30T03:22:58;100432.91;;;1.32;87.68
10064;BME280;5071;52.360;13.134;2023-01-30T03:28:01;100416.38;;;1.35;87.45
10064;BME280;5071;52.360;13.134;2023-01-30T03:33:07;100399.84;;;1.36;87.44
10064;BME280;5071;52.360;13.134;2023-01-30T03:38:09;100398.97;;;1.35;87.77
10064;BME280;5071;52.360;13.134;2023-01-30T03:43:11;100385.00;;;1.35;87.54
10064;BME280;5071;52.360;13.134;2023-01-30T03:48:15;100379.94;;;1.43;87.62
10064;BME280;5071;52.360;13.134;2023-01-30T03:53:17;100361.66;;;1.44;88.44
10064;BME280;5071;52.360;13.134;2023-01-30T03:58:19;100362.56;;;1.46;88.81
10064;BME280;5071;52.360;13.134;2023-01-30T04:03:22;100338.22;;;1.49;88.16
10064;BME280;5071;52.360;13.134;2023-01-30T04:08:25;100328.72;;;1.55;88.41
10064;BME280;5071;52.360;13.134;2023-01-30T04:13:27;100322.81;;;1.66;87.68
10064;BME280;5071;52.360;13.134;2023-01-30T04:18:30;100307.19;;;1.70;87.65
10064;BME280;5071;52.360;13.134;2023-01-30T04:23:32;100321.34;;;1.83;86.90
10064;BME280;5071;52.360;13.134;2023-01-30T04:28:35;100298.75;;;1.88;86.90
10064;BME280;5071;52.360;13.134;2023-01-30T04:33:39;100297.88;;;1.89;87.08
10064;BME280;5071;52.360;13.134;2023-01-30T04:38:41;100318.00;;;1.92;87.14
10064;BME280;5071;52.360;13.134;2023-01-30T04:43:44;100300.53;;;1.91;87.06
10064;BME280;5071;52.360;13.134;2023-01-30T04:48:47;100280.47;;;1.91;87.45
10064;BME280;5071;52.360;13.134;2023-01-30T04:53:48;100269.09;;;1.88;87.48
10064;BME280;5071;52.360;13.134;2023-01-30T04:58:51;100275.94;;;1.80;88.52
10064;BME280;5071;52.360;13.134;2023-01-30T05:03:54;100261.00;;;1.74;89.57
10064;BME280;5071;52.360;13.134;2023-01-30T05:08:57;100250.41;;;1.65;90.86
10064;BME280;5071;52.360;13.134;2023-01-30T05:13:59;100247.75;;;1.62;92.35
10064;BME280;5071;52.360;13.134;2023-01-30T05:19:03;100242.38;;;1.52;95.21
10064;BME280;5071;52.360;13.134;2023-01-30T05:24:06;100242.31;;;1.49;96.90
10064;BME280;5071;52.360;13.134;2023-01-30T05:29:09;100230.09;;;1.47;98.82
10064;BME280;5071;52.360;13.134;2023-01-30T05:34:12;100220.56;;;1.50;99.65
10064;BME280;5071;52.360;13.134;2023-01-30T05:39:15;100200.53;;;1.52;100.00
10064;BME280;5071;52.360;13.134;2023-01-30T05:44:17;100194.44;;;1.53;100.00
10064;BME280;5071;52.360;13.134;2023-01-30T05:49:20;100196.16;;;1.53;100.00
10064;BME280;5071;52.360;13.134;2023-01-30T05:54:22;100182.31;;;1.59;100.00
10064;BME280;5071;52.360;13.134;2023-01-30T05:59:24;100183.22;;;1.61;100.00
10064;BME280;5071;52.360;13.134;2023-01-30T06:04:28;100168.41;;;1.63;100.00
10064;BME280;5071;52.360;13.134;2023-01-30T06:09:30;100160.63;;;1.69;100.00
10064;BME280;5071;52.360;13.134;2023-01-30T06:14:32;100154.63;;;1.73;100.00
10064;BME280;5071;52.360;13.134;2023-01-30T06:19:36;100164.25;;;1.77;100.00
10064;BME280;5071;52.360;13.134;2023-01-30T06:24:38;100160.91;;;1.87;100.00
10064;BME280;5071;52.360;13.134;2023-01-30T06:29:40;100144.44;;;1.94;100.00
10064;BME280;5071;52.360;13.134;2023-01-30T06:34:44;100143.69;;;2.03;100.00
10064;BME280;5071;52.360;13.134;2023-01-30T06:39:46;100137.44;;;1.95;100.00
10064;BME280;5071;52.360;13.134;2023-01-30T06:44:48;100171.66;;;2.07;100.00
10064;BME280;5071;52.360;13.134;2023-01-30T06:49:51;100148.25;;;2.21;100.00
10064;BME280;5071;52.360;13.134;2023-01-30T06:54:53;100157.88;;;2.24;100.00
10064;BME280;5071;52.360;13.134;2023-01-30T06:59:55;100164.84;;;2.23;100.00
10064;BME280;5071;52.360;13.134;2023-01-30T07:04:58;100139.59;;;2.25;100.00
10064;BME280;5071;52.360;13.134;2023-01-30T07:10:00;100141.31;;;2.26;100.00
10064;BME280;5071;52.360;13.134;2023-01-30T07:15:09;100148.31;;;2.26;100.00
10064;BME280;5071;52.360;13.134;2023-01-30T07:20:12;100149.19;;;2.26;100.00
10064;BME280;5071;52.360;13.134;2023-01-30T07:25:15;100151.81;;;2.26;100.00
10064;BME280;5071;52.360;13.134;2023-01-30T07:30:17;100125.63;;;2.26;100.00
10064;BME280;5071;52.360;13.134;2023-01-30T07:35:21;100144.03;;;2.34;100.00
10064;BME280;5071;52.360;13.134;2023-01-30T07:40:24;100134.47;;;2.38;100.00
10064;BME280;5071;52.360;13.134;2023-01-30T07:45:28;100139.75;;;2.44;100.00
10064;BME280;5071;52.360;13.134;2023-01-30T07:50:33;100138.19;;;2.58;100.00
10064;BME280;5071;52.360;13.134;2023-01-30T07:55:35;100135.72;;;2.73;100.00
10064;BME280;5071;52.360;13.134;2023-01-30T08:00:37;100127.97;;;2.86;100.00
10064;BME280;5071;52.360;13.134;2023-01-30T08:05:41;100141.16;;;2.98;100.00
10064;BME280;5071;52.360;13.134;2023-01-30T08:10:43;100128.13;;;3.06;100.00
10064;BME280;5071;52.360;13.134;2023-01-30T08:15:45;100130.88;;;3.21;100.00
10064;BME280;5071;52.360;13.134;2023-01-30T08:20:48;100126.72;;;3.49;100.00
10064;BME280;5071;52.360;13.134;2023-01-30T08:25:53;100135.63;;;3.76;100.00
10064;BME280;5071;52.360;13.134;2023-01-30T08:30:56;100133.97;;;3.97;100.00
10064;BME280;5071;52.360;13.134;2023-01-30T08:36:00;100127.81;;;3.98;100.00
10064;BME280;5071;52.360;13.134;2023-01-30T08:41:03;100104.22;;;4.07;100.00
10064;BME280;5071;52.360;13.134;2023-01-30T08:46:05;100116.56;;;4.23;99.93
10064;BME280;5071;52.360;13.134;2023-01-30T08:51:08;100125.38;;;4.39;98.99
10064;BME280;5071;52.360;13.134;2023-01-30T08:56:10;100128.03;;;4.58;98.40
10064;BME280;5071;52.360;13.134;2023-01-30T09:01:12;100125.41;;;4.67;99.15
10064;BME280;5071;52.360;13.134;2023-01-30T09:06:16;100122.78;;;4.75;97.89
10064;BME280;5071;52.360;13.134;2023-01-30T09:11:18;100125.44;;;5.09;97.50
10064;BME280;5071;52.360;13.134;2023-01-30T09:16:20;100112.28;;;5.01;96.10
10064;BME280;5071;52.360;13.134;2023-01-30T09:21:24;100121.97;;;5.11;96.01
10064;BME280;5071;52.360;13.134;2023-01-30T09:26:26;100130.72;;;5.39;94.19
10064;BME280;5071;52.360;13.134;2023-01-30T09:31:29;100141.25;;;5.42;92.81
10064;BME280;5071;52.360;13.134;2023-01-30T09:36:33;100148.25;;;5.34;91.40
10064;BME280;5071;52.360;13.134;2023-01-30T09:41:50;100141.25;;;5.41;88.95
10064;BME280;5071;52.360;13.134;2023-01-30T09:47:02;100149.09;;;5.53;85.73
10064;BME280;5071;52.360;13.134;2023-01-30T09:52:22;100148.22;;;5.53;85.17
10064;BME280;5071;52.360;13.134;2023-01-30T09:57:28;100157.00;;;5.56;83.72
10064;BME280;5071;52.360;13.134;2023-01-30T10:02:43;100149.94;;;5.75;83.03
10064;BME280;5071;52.360;13.134;2023-01-30T10:07:59;100148.25;;;5.45;83.08
10064;BME280;5071;52.360;13.134;2023-01-30T10:13:11;100147.38;;;5.54;84.01
10064;BME280;5071;52.360;13.134;2023-01-30T10:18:39;100137.53;;;6.17;80.58
10064;BME280;5071;52.360;13.134;2023-01-30T10:23:57;100131.47;;;6.01;80.84
10064;BME280;5071;52.360;13.134;2023-01-30T10:29:06;100139.31;;;7.47;75.42
10064;BME280;5071;52.360;13.134;2023-01-30T10:34:18;100131.94;;;9.11;68.41
10064;BME280;5071;52.360;13.134;2023-01-30T10:39:29;100121.16;;;10.61;62.92
10064;BME280;5071;52.360;13.134;2023-01-30T10:44:39;100109.44;;;11.76;59.16
10064;BME280;5071;52.360;13.134;2023-01-30T10:49:43;100112.69;;;9.02;67.10
10064;BME280;5071;52.360;13.134;2023-01-30T10:54:55;100116.81;;;7.01;75.27
10064;BME280;5071;52.360;13.134;2023-01-30T11:00:05;100111.91;;;6.49;77.79
10064;BME280;5071;52.360;13.134;2023-01-30T11:05:14;100094.41;;;6.35;78.67
10064;BME280;5071;52.360;13.134;2023-01-30T11:10:21;100098.09;;;6.05;79.44
10064;BME280;5071;52.360;13.134;2023-01-30T11:15:38;100092.00;;;5.97;79.69
10064;BME280;5071;52.360;13.134;2023-01-30T11:20:42;100091.88;;;6.15;80.10
10064;BME280;5071;52.360;13.134;2023-01-30T11:25:50;100091.81;;;8.18;71.00
10064;BME280;5071;52.360;13.134;2023-01-30T11:31:17;100068.88;;;6.48;77.15
10064;BME280;5071;52.360;13.134;2023-01-30T11:36:37;100051.44;;;6.26;78.25
10064;BME280;5071;52.360;13.134;2023-01-30T11:41:42;100040.84;;;6.35;77.28
10064;BME280;5071;52.360;13.134;2023-01-30T11:46:44;100048.38;;;6.82;75.25
10064;BME280;5071;52.360;13.134;2023-01-30T11:51:51;100027.91;;;7.11;73.21
10064;BME280;5071;52.360;13.134;2023-01-30T11:56:57;100026.28;;;6.94;73.87
10064;BME280;5071;52.360;13.134;2023-01-30T12:02:04;100020.38;;;6.66;72.88
10064;BME280;5071;52.360;13.134;2023-01-30T12:07:17;100015.88;;;6.77;73.07
10064;BME280;5071;52.360;13.134;2023-01-30T12:12:31;100015.13;;;6.65;73.35
10064;BME280;5071;52.360;13.134;2023-01-30T12:17:38;100009.88;;;6.65;72.36
10064;BME280;5071;52.360;13.134;2023-01-30T12:22:48;99999.88;;;6.99;70.37
10064;BME280;5071;52.360;13.134;2023-01-30T12:27:58;99985.59;;;7.20;67.41
10064;BME280;5071;52.360;13.134;2023-01-30T12:33:04;99989.06;;;7.25;68.74
10064;BME280;5071;52.360;13.134;2023-01-30T12:38:14;99971.03;;;7.61;67.33
10064;BME280;5071;52.360;13.134;2023-01-30T12:43:30;99995.84;;;7.48;67.51
10064;BME280;5071;52.360;13.134;2023-01-30T12:48:49;99995.09;;;7.35;68.10
10064;BME280;5071;52.360;13.134;2023-01-30T12:54:19;99983.78;;;7.25;68.91
10064;BME280;5071;52.360;13.134;2023-01-30T12:59:33;99973.00;;;7.44;69.81
10064;BME280;5071;52.360;13.134;2023-01-30T13:04:45;99970.66;;;7.17;70.07
10064;BME280;5071;52.360;13.134;2023-01-30T13:10:09;99970.19;;;6.77;71.74
10064;BME280;5071;52.360;13.134;2023-01-30T13:15:23;99982.66;;;6.59;73.83
10064;BME280;5071;52.360;13.134;2023-01-30T13:20:38;99972.13;;;6.56;74.46
10064;BME280;5071;52.360;13.134;2023-01-30T13:25:53;99952.75;;;6.60;74.14
10064;BME280;5071;52.360;13.134;2023-01-30T13:30:59;99952.72;;;6.67;73.56
10064;BME280;5071;52.360;13.134;2023-01-30T13:36:08;99947.44;;;6.67;72.22
10064;BME280;5071;52.360;13.134;2023-01-30T13:41:14;99931.66;;;6.60;71.53
10064;BME280;5071;52.360;13.134;2023-01-30T13:46:23;99926.47;;;6.51;72.42
10064;BME280;5071;52.360;13.134;2023-01-30T13:51:40;99934.41;;;6.47;71.61
10064;BME280;5071;52.360;13.134;2023-01-30T13:56:46;99931.00;;;6.34;73.80
10064;BME280;5071;52.360;13.134;2023-01-30T14:02:18;99939.91;;;6.17;76.67
10064;BME280;5071;52.360;13.134;2023-01-30T14:07:27;99942.69;;;5.99;77.58
10064;BME280;5071;52.360;13.134;2023-01-30T14:12:34;99947.94;;;6.02;75.96
10064;BME280;5071;52.360;13.134;2023-01-30T14:17:38;99959.38;;;5.93;77.79
10064;BME280;5071;52.360;13.134;2023-01-30T14:22:49;99981.56;;;5.38;82.83
10064;BME280;5071;52.360;13.134;2023-01-30T14:27:53;99997.47;;;5.01;86.52
10064;BME280;5071;52.360;13.134;2023-01-30T14:32:58;100044.81;;;4.97;88.84
10064;BME280;5071;52.360;13.134;2023-01-30T14:38:11;100066.66;;;4.29;90.24
10064;BME280;5071;52.360;13.134;2023-01-30T14:43:35;100078.03;;;4.13;90.30
10064;BME280;5071;52.360;13.134;2023-01-30T14:48:42;100083.25;;;4.05;90.89
10064;BME280;5071;52.360;13.134;2023-01-30T14:53:51;100078.03;;;4.19;90.67
10064;BME280;5071;52.360;13.134;2023-01-30T14:58:59;100078.06;;;4.28;90.61
10064;BME280;5071;52.360;13.134;2023-01-30T15:04:04;100095.59;;;4.36;90.74
10064;BME280;5071;52.360;13.134;2023-01-30T15:09:06;100107.88;;;4.52;89.68
10064;BME280;5071;52.360;13.134;2023-01-30T15:14:13;100107.03;;;4.65;89.39
10064;BME280;5071;52.360;13.134;2023-01-30T15:19:34;100111.41;;;4.66;89.16
10064;BME280;5071;52.360;13.134;2023-01-30T15:30:31;100137.69;;;4.73;88.16
10064;BME280;5071;52.360;13.134;2023-01-30T15:35:40;100122.81;;;4.73;87.18
10064;BME280;5071;52.360;13.134;2023-01-30T15:40:43;100114.03;;;4.62;87.59
10064;BME280;5071;52.360;13.134;2023-01-30T15:45:56;100128.88;;;4.52;87.66
10064;BME280;5071;52.360;13.134;2023-01-30T15:51:10;100132.41;;;4.51;87.59
10064;BME280;5071;52.360;13.134;2023-01-30T15:56:16;100141.19;;;4.59;86.91
10064;BME280;5071;52.360;13.134;2023-01-30T16:01:21;100134.16;;;4.49;87.38
10064;BME280;5071;52.360;13.134;2023-01-30T16:06:29;100150.81;;;4.65;86.25
10064;BME280;5071;52.360;13.134;2023-01-30T16:11:36;100165.72;;;4.61;86.86
10064;BME280;5071;52.360;13.134;2023-01-30T16:16:43;100197.28;;;4.71;87.12
10064;BME280;5071;52.360;13.134;2023-01-30T16:21:49;100188.34;;;4.19;90.92
10064;BME280;5071;52.360;13.134;2023-01-30T16:26:53;100185.69;;;4.16;92.00
10064;BME280;5071;52.360;13.134;2023-01-30T16:31:56;100203.22;;;4.17;93.03
10064;BME280;5071;52.360;13.134;2023-01-30T16:37:04;100199.75;;;4.24;93.67
10064;BME280;5071;52.360;13.134;2023-01-30T16:42:25;100226.00;;;4.21;94.02
10064;BME280;5071;52.360;13.134;2023-01-30T16:47:28;100238.25;;;4.24;93.88
10064;BME280;5071;52.360;13.134;2023-01-30T16:52:34;100234.78;;;4.25;93.81
10064;BME280;5071;52.360;13.134;2023-01-30T16:57:39;100229.50;;;4.23;94.40
10064;BME280;5071;52.360;13.134;2023-01-30T17:02:49;100236.50;;;4.21;95.50
10064;BME280;5071;52.360;13.134;2023-01-30T17:07:54;100268.88;;;4.11;96.08
10064;BME280;5071;52.360;13.134;2023-01-30T17:12:57;100277.66;;;4.19;96.14
10064;BME280;5071;52.360;13.134;2023-01-30T17:18:00;100293.38;;;4.13;96.93
10064;BME280;5071;52.360;13.134;2023-01-30T17:23:07;100310.00;;;4.14;97.53
10064;BME280;5071;52.360;13.134;2023-01-30T17:28:16;100313.59;;;4.26;96.88
10064;BME280;5071;52.360;13.134;2023-01-30T17:33:19;100321.50;;;4.26;97.67
10064;BME280;5071;52.360;13.134;2023-01-30T17:38:23;100348.66;;;4.28;97.35
10064;BME280;5071;52.360;13.134;2023-01-30T17:43:25;100351.25;;;4.22;97.29
10064;BME280;5071;52.360;13.134;2023-01-30T17:48:27;100354.81;;;4.34;96.82
10064;BME280;5071;52.360;13.134;2023-01-30T17:53:31;100370.63;;;4.40;96.14
10064;BME280;5071;52.360;13.134;2023-01-30T17:58:33;100367.19;;;4.53;94.83
10064;BME280;5071;52.360;13.134;2023-01-30T18:03:34;100392.66;;;4.65;93.98
10064;BME280;5071;52.360;13.134;2023-01-30T18:08:38;100379.50;;;4.63;92.83
10064;BME280;5071;52.360;13.134;2023-01-30T18:13:40;100405.91;;;4.82;91.79
10064;BME280;5071;52.360;13.134;2023-01-30T18:18:42;100413.78;;;4.82;91.49
10064;BME280;5071;52.360;13.134;2023-01-30T18:23:45;100434.88;;;4.91;90.08
10064;BME280;5071;52.360;13.134;2023-01-30T18:28:48;100441.97;;;5.01;89.09
10064;BME280;5071;52.360;13.134;2023-01-30T18:33:51;100454.25;;;5.09;87.33
10064;BME280;5071;52.360;13.134;2023-01-30T18:38:54;100470.06;;;5.10;87.18
10064;BME280;5071;52.360;13.134;2023-01-30T18:43:57;100473.69;;;5.28;84.24
10064;BME280;5071;52.360;13.134;2023-01-30T18:48:59;100479.84;;;5.31;82.03
10064;BME280;5071;52.360;13.134;2023-01-30T18:54:02;100485.16;;;5.43;81.55
10064;BME280;5071;52.360;13.134;2023-01-30T18:59:06;100507.94;;;5.38;80.40
10064;BME280;5071;52.360;13.134;2023-01-30T19:04:09;100510.59;;;5.48;78.36
10064;BME280;5071;52.360;13.134;2023-01-30T19:09:14;100529.03;;;5.48;77.39
10064;BME280;5071;52.360;13.134;2023-01-30T19:14:16;100524.59;;;5.37;77.82
10064;BME280;5071;52.360;13.134;2023-01-30T19:19:18;100550.03;;;5.38;77.61
10064;BME280;5071;52.360;13.134;2023-01-30T19:24:21;100553.59;;;5.50;76.52
10064;BME280;5071;52.360;13.134;2023-01-30T19:29:23;100554.53;;;5.56;76.83
10064;BME280;5071;52.360;13.134;2023-01-30T19:34:24;100579.97;;;5.59;76.20
10064;BME280;5071;52.360;13.134;2023-01-30T19:39:27;100588.72;;;5.49;76.37
10064;BME280;5071;52.360;13.134;2023-01-30T19:44:29;100600.00;;;5.31;76.96
10064;BME280;5071;52.360;13.134;2023-01-30T19:49:31;100590.41;;;5.40;76.03
10064;BME280;5071;52.360;13.134;2023-01-30T19:54:38;100601.72;;;5.27;76.21
10064;BME280;5071;52.360;13.134;2023-01-30T19:59:39;100625.44;;;5.30;75.76
10064;BME280;5071;52.360;13.134;2023-01-30T20:04:41;100631.56;;;5.31;75.44
10064;BME280;5071;52.360;13.134;2023-01-30T20:09:45;100635.94;;;5.27;74.63
10064;BME280;5071;52.360;13.134;2023-01-30T20:14:47;100626.28;;;5.24;74.80
10064;BME280;5071;52.360;13.134;2023-01-30T20:19:49;100628.94;;;5.29;73.75
10064;BME280;5071;52.360;13.134;2023-01-30T20:24:53;100648.25;;;5.28;73.00
10064;BME280;5071;52.360;13.134;2023-01-30T20:29:55;100663.91;;;5.13;74.14
10064;BME280;5071;52.360;13.134;2023-01-30T20:34:57;100665.56;;;5.03;74.77
10064;BME280;5071;52.360;13.134;2023-01-30T20:40:00;100663.78;;;5.00;75.23
10064;BME280;5071;52.360;13.134;2023-01-30T20:45:03;100673.44;;;5.00;74.64
10064;BME280;5071;52.360;13.134;2023-01-30T20:50:07;100683.78;;;4.81;75.34
10064;BME280;5071;52.360;13.134;2023-01-30T20:55:11;100708.34;;;4.83;75.68
10064;BME280;5071;52.360;13.134;2023-01-30T21:00:13;100713.69;;;4.93;75.09
10064;BME280;5071;52.360;13.134;2023-01-30T21:05:16;100752.19;;;4.87;75.46
10064;BME280;5071;52.360;13.134;2023-01-30T21:10:19;100745.00;;;4.70;77.26
10064;BME280;5071;52.360;13.134;2023-01-30T21:15:22;100733.50;;;4.60;77.83
10064;BME280;5071;52.360;13.134;2023-01-30T21:20:23;100751.72;;;4.46;77.62
10064;BME280;5071;52.360;13.134;2023-01-30T21:25:26;100768.19;;;4.33;77.69
10064;BME280;5071;52.360;13.134;2023-01-30T21:30:28;100780.25;;;4.17;77.51
10064;BME280;5071;52.360;13.134;2023-01-30T21:35:31;100789.72;;;4.05;78.16
10064;BME280;5071;52.360;13.134;2023-01-30T21:40:34;100786.94;;;3.98;79.13
10064;BME280;5071;52.360;13.134;2023-01-30T21:45:36;100793.81;;;3.89;79.92
10064;BME280;5071;52.360;13.134;2023-01-30T21:50:38;100800.66;;;3.78;80.21
10064;BME280;5071;52.360;13.134;2023-01-30T21:55:42;100802.28;;;3.70;80.59
10064;BME280;5071;52.360;13.134;2023-01-30T22:00:44;100807.59;;;3.75;80.26
10064;BME280;5071;52.360;13.134;2023-01-30T22:05:46;100810.03;;;3.62;81.13
10064;BME280;5071;52.360;13.134;2023-01-30T22:10:49;100826.75;;;3.69;80.89
10064;BME280;5071;52.360;13.134;2023-01-30T22:15:51;100835.47;;;3.66;81.01
10064;BME280;5071;52.360;13.134;2023-01-30T22:20:53;100839.81;;;3.64;80.75
10064;BME280;5071;52.360;13.134;2023-01-30T22:25:56;100844.13;;;3.61;81.08
10064;BME280;5071;52.360;13.134;2023-01-30T22:31:03;100860.75;;;3.61;81.24
10064;BME280;5071;52.360;13.134;2023-01-30T22:36:06;100851.16;;;3.63;81.04
10064;BME280;5071;52.360;13.134;2023-01-30T22:41:12;100861.50;;;3.56;81.19
10064;BME280;5071;52.360;13.134;2023-01-30T22:46:16;100873.84;;;3.60;80.62
10064;BME280;5071;52.360;13.134;2023-01-30T22:51:20;100876.69;;;3.72;79.98
10064;BME280;5071;52.360;13.134;2023-01-30T22:56:26;100883.69;;;3.73;79.22
10064;BME280;5071;52.360;13.134;2023-01-30T23:01:30;100876.66;;;3.70;78.46
10064;BME280;5071;52.360;13.134;2023-01-30T23:06:33;100868.91;;;3.78;77.38
10064;BME280;5071;52.360;13.134;2023-01-30T23:11:39;100874.06;;;3.72;77.12
10064;BME280;5071;52.360;13.134;2023-01-30T23:16:43;100877.63;;;3.77;76.18
10064;BME280;5071;52.360;13.134;2023-01-30T23:21:45;100890.63;;;3.69;76.50
10064;BME280;5071;52.360;13.134;2023-01-30T23:26:50;100897.75;;;3.77;75.83
10064;BME280;5071;52.360;13.134;2023-01-30T23:31:52;100907.50;;;3.82;75.22
10064;BME280;5071;52.360;13.134;2023-01-30T23:36:54;100912.56;;;3.73;75.97
10064;BME280;5071;52.360;13.134;2023-01-30T23:41:58;100914.44;;;3.80;75.23
10064;BME280;5071;52.360;13.134;2023-01-30T23:47:00;100917.78;;;3.70;75.67
10064;BME280;5071;52.360;13.134;2023-01-30T23:52:03;100915.06;;;3.65;76.58
10064;BME280;5071;52.360;13.134;2023-01-30T23:57:06;100920.78;;;3.44;78.14
